Time,TemperatureF,DewpointF,PressureIn,WindDirection,WindDirectionDegrees,WindSpeedMPH,WindSpeedGustMPH,Humidity,HourlyPrecipIn,Conditions,Clouds,dailyrainin,SoftwareType,DateUTC
2013-06-17 03:25:00,50.4,42.4,28.42,North,0,0.0,0.0,74,0.00,,---,0.00,VWS V14.01,2013-06-17 10:25:00,
2013-06-17 03:39:00,50.5,42.5,28.42,SSE,167,0.0,0.0,74,0.00,,---,0.00,VWS V14.01,2013-06-17 10:39:00,
2013-06-17 03:41:00,50.5,42.5,28.42,SSE,165,0.0,0.0,74,0.00,,---,0.00,VWS V14.01,2013-06-17 10:41:00,
2013-06-17 03:46:00,50.5,42.5,28.42,SSE,168,0.0,0.0,74,0.00,,---,0.00,VWS V14.01,2013-06-17 10:46:00,
2013-06-17 03:51:00,50.5,42.5,28.42,South,172,0.0,0.0,74,0.00,,---,0.00,VWS V14.01,2013-06-17 10:51:00,
2013-06-17 03:56:00,50.4,42.4,28.41,South,182,0.0,0.0,74,0.00,,---,0.00,VWS V14.01,2013-06-17 10:56:00,
2013-06-17 04:01:00,50.1,42.5,28.42,South,182,0.0,0.0,75,0.00,,---,0.00,VWS V14.01,2013-06-17 11:01:00,
2013-06-17 04:06:00,50.1,42.5,28.42,South,183,0.0,0.0,75,0.00,,---,0.00,VWS V14.01,2013-06-17 11:06:00,
2013-06-17 04:11:00,50.1,42.5,28.42,South,184,0.0,0.0,75,0.00,,---,0.00,VWS V14.01,2013-06-17 11:11:00,
2013-06-17 04:16:00,49.8,42.5,28.42,SSW,198,0.0,0.0,76,0.00,,---,0.00,VWS V14.01,2013-06-17 11:16:00,
2013-06-17 04:21:00,49.8,42.5,28.42,SSW,196,0.0,0.0,76,0.00,,---,0.00,VWS V14.01,2013-06-17 11:21:00,
2013-06-17 04:26:00,49.8,42.9,28.42,SSW,193,0.0,0.0,77,0.00,,---,0.00,VWS V14.01,2013-06-17 11:26:00,
2013-06-17 04:31:00,49.8,42.9,28.42,South,188,0.0,0.0,77,0.00,,---,0.00,VWS V14.01,2013-06-17 11:31:00,
2013-06-17 04:37:00,49.9,42.7,30.99,South,182,0.0,0.0,76,0.00,,---,0.00,VWS V14.01,2013-06-17 11:37:00,
2013-06-17 04:42:00,49.6,42.7,30.99,SSW,195,0.0,0.0,77,0.00,,---,0.00,VWS V14.01,2013-06-17 11:42:00,
2013-06-17 04:47:00,49.2,42.3,27.03,South,190,0.0,0.0,77,0.00,,---,0.00,VWS V14.01,2013-06-17 11:47:00,
2013-06-17 04:52:00,48.8,42.3,27.03,South,188,0.0,0.0,78,0.00,,---,0.00,VWS V14.01,2013-06-17 11:52:00,
2013-06-17 04:57:00,48.3,41.8,27.03,SSW,192,0.0,0.0,78,0.00,,---,0.00,VWS V14.01,2013-06-17 11:57:00,
2013-06-17 05:02:00,48.0,41.8,31.34,SSW,192,0.0,0.0,79,0.00,,---,0.00,VWS V14.01,2013-06-17 12:02:00,
2013-06-17 05:07:00,47.7,41.5,31.33,SSW,193,0.0,0.0,79,0.00,,---,0.00,VWS V14.01,2013-06-17 12:07:00,
2013-06-17 05:12:00,47.7,41.5,31.33,SSW,206,0.0,0.0,79,0.00,,---,0.00,VWS V14.01,2013-06-17 12:12:00,
2013-06-17 05:17:00,48.0,41.8,31.33,SSW,203,0.0,0.0,79,0.00,,---,0.00,VWS V14.01,2013-06-17 12:17:00,
2013-06-17 05:22:00,48.8,41.9,31.33,SSW,206,0.0,0.0,77,0.00,,---,0.00,VWS V14.01,2013-06-17 12:22:00,
2013-06-17 05:27:00,48.9,41.7,31.33,SSW,209,0.0,0.0,76,0.00,,---,0.00,VWS V14.01,2013-06-17 12:27:00,
2013-06-17 05:32:00,48.8,41.9,31.33,SSW,208,0.0,0.0,77,0.00,,---,0.00,VWS V14.01,2013-06-17 12:32:00,
2013-06-17 05:37:00,48.6,41.4,31.33,SSW,202,0.0,0.0,76,0.00,,---,0.00,VWS V14.01,2013-06-17 12:37:00,
2013-06-17 05:42:00,47.7,41.2,31.33,SSW,204,0.0,0.0,78,0.00,,---,0.00,VWS V14.01,2013-06-17 12:42:00,
2013-06-17 05:47:00,47.7,41.2,31.33,SSW,198,0.0,0.0,78,0.00,,---,0.00,VWS V14.01,2013-06-17 12:47:00,
2013-06-17 05:53:00,48.2,41.3,29.66,SSW,207,0.0,0.0,77,0.00,,---,0.00,VWS V14.01,2013-06-17 12:53:00,
2013-06-17 05:58:00,48.5,41.6,31.33,SW,215,0.0,0.0,77,0.00,,---,0.00,VWS V14.01,2013-06-17 12:58:00,
2013-06-17 06:03:00,49.2,42.0,31.33,SW,217,0.0,0.0,76,0.00,,---,0.00,VWS V14.01,2013-06-17 13:03:00,
2013-06-17 06:08:00,49.6,42.4,31.34,SW,223,0.0,0.0,76,0.00,,---,0.00,VWS V14.01,2013-06-17 13:08:00,
2013-06-17 06:13:00,50.2,42.2,20.70,SW,219,0.0,0.0,74,0.00,,---,0.00,VWS V14.01,2013-06-17 13:13:00,
2013-06-17 06:18:00,50.8,42.8,20.70,SW,218,0.0,0.0,74,0.00,,---,0.00,VWS V14.01,2013-06-17 13:18:00,
2013-06-17 06:23:00,51.0,42.7,20.70,SW,227,0.0,0.0,73,0.00,,---,0.00,VWS V14.01,2013-06-17 13:23:00,
2013-06-17 06:28:00,51.3,43.0,20.70,SW,227,0.0,0.0,73,0.00,,---,0.00,VWS V14.01,2013-06-17 13:28:00,
2013-06-17 06:33:00,51.9,42.8,27.03,SSW,213,0.0,0.0,71,0.00,,---,0.00,VWS V14.01,2013-06-17 13:33:00,
2013-06-17 06:38:00,52.5,43.4,27.03,SW,222,0.0,0.0,71,0.00,,---,0.00,VWS V14.01,2013-06-17 13:38:00,
2013-06-17 06:43:00,53.1,43.6,27.03,SW,215,0.0,0.0,70,0.00,,---,0.00,VWS V14.01,2013-06-17 13:43:00,
2013-06-17 06:48:00,53.6,43.7,27.03,SSW,213,0.0,0.0,69,0.00,,---,0.00,VWS V14.01,2013-06-17 13:48:00,
2013-06-17 06:53:00,53.8,43.1,27.03,SW,216,0.0,0.0,67,0.00,,---,0.00,VWS V14.01,2013-06-17 13:53:00,
2013-06-17 06:58:00,53.2,43.3,27.03,SW,217,0.0,0.0,69,0.00,,---,0.00,VWS V14.01,2013-06-17 13:58:00,
2013-06-17 07:03:00,53.1,43.6,20.69,SSW,205,0.0,0.0,70,0.00,,---,0.00,VWS V14.01,2013-06-17 14:03:00,
2013-06-17 07:08:00,52.5,43.0,20.70,SSW,202,0.0,0.0,70,0.00,,---,0.00,VWS V14.01,2013-06-17 14:08:00,
2013-06-17 07:13:00,52.0,43.3,20.70,SSW,200,0.0,0.0,72,0.00,,---,0.00,VWS V14.01,2013-06-17 14:13:00,
2013-06-17 07:18:00,52.3,43.5,20.70,SSW,200,0.0,0.0,72,0.00,,---,0.00,VWS V14.01,2013-06-17 14:18:00,
2013-06-17 07:24:00,52.6,43.5,20.70,South,186,0.0,0.0,71,0.00,,---,0.00,VWS V14.01,2013-06-17 14:24:00,
2013-06-17 07:29:00,53.5,44.3,20.70,South,184,0.0,0.0,71,0.00,,---,0.00,VWS V14.01,2013-06-17 14:29:00,
2013-06-17 07:34:00,53.6,44.4,20.70,South,178,0.0,0.0,71,0.00,,---,0.00,VWS V14.01,2013-06-17 14:34:00,
2013-06-17 07:39:00,54.4,44.8,20.70,South,169,0.0,0.0,70,0.00,,---,0.00,VWS V14.01,2013-06-17 14:39:00,
2013-06-17 07:44:00,54.8,44.5,20.70,SSW,192,0.0,0.0,68,0.00,,---,0.00,VWS V14.01,2013-06-17 14:44:00,
2013-06-17 07:49:00,55.0,44.7,20.70,South,188,0.0,0.0,68,0.00,,---,0.00,VWS V14.01,2013-06-17 14:49:00,
2013-06-17 07:54:00,55.1,44.7,28.41,SSW,192,0.0,0.0,68,0.00,,---,0.00,VWS V14.01,2013-06-17 14:54:00,
2013-06-17 07:59:00,55.4,45.4,28.41,South,182,0.0,0.0,69,0.00,,---,0.00,VWS V14.01,2013-06-17 14:59:00,
2013-06-17 08:04:00,55.9,45.5,28.40,SSW,195,0.0,0.0,68,0.00,,---,0.00,VWS V14.01,2013-06-17 15:04:00,
2013-06-17 08:09:00,56.6,45.8,28.42,SSW,194,0.0,0.0,67,0.00,,---,0.00,VWS V14.01,2013-06-17 15:09:00,
2013-06-17 08:14:00,56.9,46.1,31.75,SSW,194,0.0,0.0,67,0.00,,---,0.00,VWS V14.01,2013-06-17 15:14:00,
2013-06-17 08:19:00,57.8,46.1,31.75,SSE,165,0.0,0.0,65,0.00,,---,0.00,VWS V14.01,2013-06-17 15:19:00,
2013-06-17 08:24:00,58.7,46.2,29.69,South,182,0.0,0.0,63,0.00,,---,0.00,VWS V14.01,2013-06-17 15:24:00,
2013-06-17 08:29:00,59.5,46.1,29.69,SSE,160,0.0,0.0,61,0.00,,---,0.00,VWS V14.01,2013-06-17 15:29:00,
2013-06-17 08:34:00,59.2,45.8,29.69,South,185,0.0,0.0,61,0.00,,---,0.00,VWS V14.01,2013-06-17 15:34:00,
2013-06-17 08:39:00,59.6,45.3,20.68,SSW,213,0.0,0.0,59,0.00,,---,0.00,VWS V14.01,2013-06-17 15:39:00,
2013-06-17 08:44:00,60.2,45.8,20.68,SSE,161,0.0,0.0,59,0.00,,---,0.00,VWS V14.01,2013-06-17 15:44:00,
2013-06-17 08:49:00,61.3,46.9,20.68,SSW,206,0.0,0.0,59,0.00,,---,0.00,VWS V14.01,2013-06-17 15:49:00,
2013-06-17 08:55:00,61.5,45.7,31.38,SSW,192,0.0,0.0,56,0.00,,---,0.00,VWS V14.01,2013-06-17 15:55:00,
2013-06-17 09:00:00,62.1,44.8,20.68,South,188,0.0,0.0,53,0.00,,---,0.00,VWS V14.01,2013-06-17 16:00:00,
2013-06-17 09:05:00,62.6,45.2,20.68,SE,144,0.0,0.0,53,0.00,,---,0.00,VWS V14.01,2013-06-17 16:05:00,
2013-06-17 09:10:00,63.2,44.8,29.70,SSE,153,0.0,0.0,51,0.00,,---,0.00,VWS V14.01,2013-06-17 16:10:00,
2013-06-17 09:15:00,63.4,45.5,29.70,South,171,0.0,0.0,52,0.00,,---,0.00,VWS V14.01,2013-06-17 16:15:00,
2013-06-17 09:20:00,64.8,45.7,29.70,SE,139,0.0,0.0,50,0.00,,---,0.00,VWS V14.01,2013-06-17 16:20:00,
2013-06-17 09:25:00,64.0,45.5,29.70,SSE,160,0.0,0.0,51,0.00,,---,0.00,VWS V14.01,2013-06-17 16:25:00,
2013-06-17 09:30:00,63.7,44.2,29.70,SSE,167,0.0,0.0,49,0.00,,---,0.00,VWS V14.01,2013-06-17 16:30:00,
2013-06-17 09:35:00,64.0,45.0,28.71,South,170,0.0,0.0,50,0.00,,---,0.00,VWS V14.01,2013-06-17 16:35:00,
2013-06-17 09:40:00,64.8,44.1,28.71,SSW,205,0.0,0.0,47,0.00,,---,0.00,VWS V14.01,2013-06-17 16:40:00,
2013-06-17 09:46:00,65.6,45.4,28.72,SSW,202,0.0,0.0,48,0.00,,---,0.00,VWS V14.01,2013-06-17 16:46:00,
2013-06-17 09:51:00,64.8,43.6,28.72,South,171,0.0,0.0,46,0.00,,---,0.00,VWS V14.01,2013-06-17 16:51:00,
2013-06-17 09:56:00,65.3,45.7,28.72,South,181,0.0,0.0,49,0.00,,---,0.00,VWS V14.01,2013-06-17 16:56:00,
2013-06-17 10:01:00,66.6,44.0,28.72,ESE,110,0.0,0.0,44,0.00,,---,0.00,VWS V14.01,2013-06-17 17:01:00,
2013-06-17 10:06:00,67.3,45.2,28.72,SE,128,0.0,0.0,45,0.00,,---,0.00,VWS V14.01,2013-06-17 17:06:00,
2013-06-17 10:11:00,67.6,45.5,28.05,SSE,156,0.0,0.0,45,0.00,,---,0.00,VWS V14.01,2013-06-17 17:11:00,
2013-06-17 10:16:00,68.1,45.4,28.05,SE,138,0.0,0.0,44,0.00,,---,0.00,VWS V14.01,2013-06-17 17:16:00,
2013-06-17 10:21:00,68.3,44.3,28.05,SE,132,0.0,0.0,42,0.00,,---,0.00,VWS V14.01,2013-06-17 17:21:00,
2013-06-17 10:26:00,68.6,44.6,28.05,South,173,0.0,0.0,42,0.00,,---,0.00,VWS V14.01,2013-06-17 17:26:00,
2013-06-17 10:31:00,67.9,41.4,28.05,South,169,0.0,0.0,38,0.00,,---,0.00,VWS V14.01,2013-06-17 17:31:00,
2013-06-17 10:37:00,68.3,43.7,28.05,SSW,198,0.0,0.0,41,0.00,,---,0.00,VWS V14.01,2013-06-17 17:37:00,
2013-06-17 10:42:00,69.6,42.9,28.05,SE,142,0.0,0.0,38,0.00,,---,0.00,VWS V14.01,2013-06-17 17:42:00,
2013-06-17 10:47:00,70.3,42.8,31.72,SSW,213,0.0,0.0,37,0.00,,---,0.00,VWS V14.01,2013-06-17 17:47:00,
2013-06-17 10:52:00,69.4,42.0,31.72,SE,138,0.0,0.0,37,0.00,,---,0.00,VWS V14.01,2013-06-17 17:52:00,
2013-06-17 10:57:00,70.8,44.0,31.72,SW,221,0.0,0.0,38,0.00,,---,0.00,VWS V14.01,2013-06-17 17:57:00,
2013-06-17 11:02:00,70.6,40.9,31.72,SSW,204,0.0,0.0,34,0.00,,---,0.00,VWS V14.01,2013-06-17 18:02:00,
2013-06-17 11:07:00,69.9,40.3,31.72,South,184,0.0,0.0,34,0.00,,---,0.00,VWS V14.01,2013-06-17 18:07:00,
2013-06-17 11:12:00,70.6,43.1,30.05,SSW,193,0.0,0.0,37,0.00,,---,0.00,VWS V14.01,2013-06-17 18:12:00,
2013-06-17 11:17:00,71.1,42.1,30.05,SW,232,0.0,0.0,35,0.00,,---,0.00,VWS V14.01,2013-06-17 18:17:00,
2013-06-17 11:22:00,70.3,41.4,28.38,SW,224,0.0,0.0,35,0.00,,---,0.00,VWS V14.01,2013-06-17 18:22:00,
2013-06-17 11:27:00,70.6,40.9,30.05,South,178,0.0,0.0,34,0.00,,---,0.00,VWS V14.01,2013-06-17 18:27:00,
2013-06-17 11:32:00,70.8,41.1,28.38,SSW,192,0.0,0.0,34,0.00,,---,0.00,VWS V14.01,2013-06-17 18:32:00,
2013-06-17 11:37:00,71.5,41.7,28.38,SSW,212,0.0,0.0,34,0.00,,---,0.00,VWS V14.01,2013-06-17 18:37:00,
2013-06-17 11:42:00,72.8,39.6,28.38,SW,230,0.0,0.0,30,0.00,,---,0.00,VWS V14.01,2013-06-17 18:42:00,
2013-06-17 11:47:00,71.5,38.5,28.38,WSW,246,0.0,0.0,30,0.00,,---,0.00,VWS V14.01,2013-06-17 18:47:00,
2013-06-17 11:52:00,73.0,41.4,28.38,SSW,205,0.0,0.0,32,0.00,,---,0.00,VWS V14.01,2013-06-17 18:52:00,
2013-06-17 11:57:00,74.2,40.8,28.37,SW,236,0.0,0.0,30,0.00,,---,0.00,VWS V14.01,2013-06-17 18:57:00,
2013-06-17 12:03:00,72.8,38.7,28.38,SSW,205,0.0,0.0,29,0.00,,---,0.00,VWS V14.01,2013-06-17 19:03:00,
2013-06-17 12:08:00,73.0,38.9,28.38,SW,222,0.0,0.0,29,0.00,,---,0.00,VWS V14.01,2013-06-17 19:08:00,
2013-06-17 12:13:00,73.9,39.7,28.38,South,182,0.0,0.0,29,0.00,,---,0.00,VWS V14.01,2013-06-17 19:13:00,
2013-06-17 12:18:00,74.2,41.7,28.38,SSW,195,0.0,0.0,31,0.00,,---,0.00,VWS V14.01,2013-06-17 19:18:00,
2013-06-17 12:23:00,74.6,38.5,28.38,SW,227,0.0,0.0,27,0.00,,---,0.00,VWS V14.01,2013-06-17 19:23:00,
2013-06-17 12:28:00,75.3,41.8,28.38,SW,229,0.0,0.0,30,0.00,,---,0.00,VWS V14.01,2013-06-17 19:28:00,
2013-06-17 12:33:00,73.9,39.7,28.38,SW,217,0.0,0.0,29,0.00,,---,0.00,VWS V14.01,2013-06-17 19:33:00,
2013-06-17 12:38:00,72.1,37.2,28.38,WSW,244,0.0,0.0,28,0.00,,---,0.00,VWS V14.01,2013-06-17 19:38:00,
2013-06-17 12:43:00,71.1,40.6,28.38,SW,232,0.0,0.0,33,0.00,,---,0.00,VWS V14.01,2013-06-17 19:43:00,
2013-06-17 12:48:00,71.5,39.3,28.38,South,169,0.0,0.0,31,0.00,,---,0.00,VWS V14.01,2013-06-17 19:48:00,
2013-06-17 12:53:00,73.9,37.8,28.38,SSE,152,0.0,0.0,27,0.00,,---,0.00,VWS V14.01,2013-06-17 19:53:00,
2013-06-17 12:58:00,73.0,38.0,28.38,SW,216,0.0,0.0,28,0.00,,---,0.00,VWS V14.01,2013-06-17 19:58:00,
2013-06-17 13:03:00,74.4,41.0,32.06,SSW,207,0.0,0.0,30,0.00,,---,0.00,VWS V14.01,2013-06-17 20:03:00,
2013-06-17 13:08:00,74.9,41.4,32.39,South,181,0.0,0.0,30,0.00,,---,0.00,VWS V14.01,2013-06-17 20:08:00,
2013-06-17 13:14:00,75.4,40.1,32.39,SW,219,0.0,0.0,28,0.00,,---,0.00,VWS V14.01,2013-06-17 20:14:00,
2013-06-17 13:19:00,73.9,38.8,31.05,SSW,211,0.0,0.0,28,0.00,,---,0.00,VWS V14.01,2013-06-17 20:19:00,
2013-06-17 13:24:00,72.7,38.6,31.05,SW,228,0.0,0.0,29,0.00,,---,0.00,VWS V14.01,2013-06-17 20:24:00,
2013-06-17 13:29:00,72.3,40.8,31.05,South,188,0.0,0.0,32,0.00,,---,0.00,VWS V14.01,2013-06-17 20:29:00,
2013-06-17 13:34:00,73.3,40.9,31.05,SSW,209,0.0,0.0,31,0.00,,---,0.00,VWS V14.01,2013-06-17 20:34:00,
2013-06-17 13:39:00,74.7,39.5,29.72,SW,233,0.0,0.0,28,0.00,,---,0.00,VWS V14.01,2013-06-17 20:39:00,
2013-06-17 13:44:00,73.2,39.1,29.05,West,275,0.0,0.0,29,0.00,,---,0.00,VWS V14.01,2013-06-17 20:44:00,
2013-06-17 13:49:00,71.8,39.6,29.05,West,265,0.0,0.0,31,0.00,,---,0.00,VWS V14.01,2013-06-17 20:49:00,
2013-06-17 13:54:00,70.6,37.7,29.40,West,260,0.0,0.0,30,0.00,,---,0.00,VWS V14.01,2013-06-17 20:54:00,
2013-06-17 13:59:00,70.8,37.9,28.39,SW,229,0.0,0.0,30,0.00,,---,0.00,VWS V14.01,2013-06-17 20:59:00,
2013-06-17 14:04:00,70.8,37.9,28.73,WSW,257,0.0,0.0,30,0.00,,---,0.00,VWS V14.01,2013-06-17 21:04:00,
2013-06-17 14:09:00,73.7,38.6,28.73,WSW,255,0.0,0.0,28,0.00,,---,0.00,VWS V14.01,2013-06-17 21:09:00,
2013-06-17 14:14:00,74.6,39.4,28.38,SSW,196,0.0,0.0,28,0.00,,---,0.00,VWS V14.01,2013-06-17 21:14:00,
2013-06-17 14:20:00,74.6,39.4,28.38,SSW,209,0.0,0.0,28,0.00,,---,0.00,VWS V14.01,2013-06-17 21:20:00,
2013-06-17 14:25:00,74.9,39.6,28.38,WSW,237,0.0,0.0,28,0.00,,---,0.00,VWS V14.01,2013-06-17 21:25:00,
2013-06-17 14:30:00,76.5,40.1,28.37,SW,227,0.0,0.0,27,0.00,,---,0.00,VWS V14.01,2013-06-17 21:30:00,
2013-06-17 14:35:00,76.1,40.7,28.37,South,181,0.0,0.0,28,0.00,,---,0.00,VWS V14.01,2013-06-17 21:35:00,
2013-06-17 14:40:00,76.1,39.7,28.37,West,273,0.0,0.0,27,0.00,,---,0.00,VWS V14.01,2013-06-17 21:40:00,
2013-06-17 14:45:00,75.6,39.3,28.37,SW,223,0.0,0.0,27,0.00,,---,0.00,VWS V14.01,2013-06-17 21:45:00,
2013-06-17 14:50:00,74.9,37.7,28.37,WSW,253,0.0,0.0,26,0.00,,---,0.00,VWS V14.01,2013-06-17 21:50:00,
2013-06-17 14:55:00,74.7,37.6,28.37,SW,223,0.0,0.0,26,0.00,,---,0.00,VWS V14.01,2013-06-17 21:55:00,
2013-06-17 15:00:00,74.9,36.7,28.37,West,261,0.0,0.0,25,0.00,,---,0.00,VWS V14.01,2013-06-17 22:00:00,
2013-06-17 15:05:00,74.6,37.5,28.37,WSW,238,0.0,0.0,26,0.00,,---,0.00,VWS V14.01,2013-06-17 22:05:00,
2013-06-17 15:10:00,75.3,38.1,28.37,SW,229,0.0,0.0,26,0.00,,---,0.00,VWS V14.01,2013-06-17 22:10:00,
2013-06-17 15:15:00,74.4,37.3,28.37,SSE,167,0.0,0.0,26,0.00,,---,0.00,VWS V14.01,2013-06-17 22:15:00,
2013-06-17 15:20:00,74.0,37.9,28.37,SSW,202,0.0,0.0,27,0.00,,---,0.00,VWS V14.01,2013-06-17 22:20:00,
2013-06-17 15:25:00,73.7,37.7,28.37,SW,222,0.0,0.0,27,0.00,,---,0.00,VWS V14.01,2013-06-17 22:25:00,
2013-06-17 15:30:00,73.3,40.9,28.37,NNW,333,0.0,0.0,31,0.00,,---,0.00,VWS V14.01,2013-06-17 22:30:00,
2013-06-17 15:36:00,71.6,39.4,28.37,NNE,12,0.0,0.0,31,0.00,,---,0.00,VWS V14.01,2013-06-17 22:36:00,
2013-06-17 15:41:00,72.1,40.7,28.37,NNW,338,0.0,0.0,32,0.00,,---,0.00,VWS V14.01,2013-06-17 22:41:00,
2013-06-17 15:46:00,71.6,39.4,28.37,North,360,0.0,0.0,31,0.00,,---,0.00,VWS V14.01,2013-06-17 22:46:00,
2013-06-17 15:51:00,70.4,38.3,28.37,North,355,0.0,0.0,31,0.00,,---,0.00,VWS V14.01,2013-06-17 22:51:00,
2013-06-17 15:56:00,70.1,38.9,28.37,North,355,0.0,0.0,32,0.00,,---,0.00,VWS V14.01,2013-06-17 22:56:00,
2013-06-17 16:01:00,70.1,40.5,28.37,SW,224,0.0,0.0,34,0.00,,---,0.00,VWS V14.01,2013-06-17 23:01:00,
2013-06-17 16:06:00,70.8,39.5,28.37,WNW,288,0.0,0.0,32,0.00,,---,0.00,VWS V14.01,2013-06-17 23:06:00,
2013-06-17 16:11:00,70.9,38.8,28.37,NNW,346,0.0,0.0,31,0.00,,---,0.00,VWS V14.01,2013-06-17 23:11:00,
2013-06-17 16:16:00,70.3,40.6,28.37,West,278,0.0,0.0,34,0.00,,---,0.00,VWS V14.01,2013-06-17 23:16:00,
2013-06-17 16:21:00,70.1,41.2,28.37,West,278,0.0,0.0,35,0.00,,---,0.00,VWS V14.01,2013-06-17 23:21:00,
2013-06-17 16:26:00,70.3,41.4,28.37,NNE,19,0.0,0.0,35,0.00,,---,0.00,VWS V14.01,2013-06-17 23:26:00,
2013-06-17 16:31:00,69.8,40.9,28.37,NNE,28,0.0,0.0,35,0.00,,---,0.00,VWS V14.01,2013-06-17 23:31:00,
2013-06-17 16:36:00,69.3,40.5,28.37,NNW,343,0.0,0.0,35,0.00,,---,0.00,VWS V14.01,2013-06-17 23:36:00,
2013-06-17 16:41:00,68.9,40.9,28.37,NNW,329,0.0,0.0,36,0.00,,---,0.00,VWS V14.01,2013-06-17 23:41:00,
2013-06-17 16:46:00,68.8,40.1,28.37,North,5,0.0,0.0,35,0.00,,---,0.00,VWS V14.01,2013-06-17 23:46:00,
2013-06-17 16:51:00,68.6,39.9,28.37,NW,309,0.0,0.0,35,0.00,,---,0.00,VWS V14.01,2013-06-17 23:51:00,
2013-06-17 16:57:00,68.8,40.8,23.95,NW,317,0.0,0.0,36,0.00,,---,0.00,VWS V14.01,2013-06-17 23:57:00,
2013-06-17 17:02:00,69.1,40.3,23.95,NW,311,0.0,0.0,35,0.00,,---,0.00,VWS V14.01,2013-06-18 00:02:00,
2013-06-17 17:07:00,68.9,40.9,23.95,NNE,19,0.0,0.0,36,0.00,,---,0.00,VWS V14.01,2013-06-18 00:07:00,
2013-06-17 17:12:00,68.9,40.9,23.95,NNE,19,0.0,0.0,36,0.00,,---,0.00,VWS V14.01,2013-06-18 00:12:00,
2013-06-17 17:17:00,68.8,40.8,23.95,NNE,18,0.0,0.0,36,0.00,,---,0.00,VWS V14.01,2013-06-18 00:17:00,
2013-06-17 17:22:00,68.6,40.6,23.95,NNW,330,0.0,0.0,36,0.00,,---,0.00,VWS V14.01,2013-06-18 00:22:00,
2013-06-17 17:27:00,68.3,41.0,23.95,North,355,0.0,0.0,37,0.00,,---,0.00,VWS V14.01,2013-06-18 00:27:00,
2013-06-17 17:32:00,67.8,40.6,23.95,NNW,344,0.0,0.0,37,0.00,,---,0.00,VWS V14.01,2013-06-18 00:32:00,
2013-06-17 17:37:00,67.3,40.2,23.95,NW,317,0.0,0.0,37,0.00,,---,0.00,VWS V14.01,2013-06-18 00:37:00,
2013-06-17 17:42:00,66.9,40.5,23.95,North,9,0.0,0.0,38,0.00,,---,0.00,VWS V14.01,2013-06-18 00:42:00,
2013-06-17 17:47:00,66.9,40.5,23.95,North,5,0.0,0.0,38,0.00,,---,0.00,VWS V14.01,2013-06-18 00:47:00,
2013-06-17 17:52:00,66.8,41.1,23.95,NNE,13,0.0,0.0,39,0.00,,---,0.00,VWS V14.01,2013-06-18 00:52:00,
2013-06-17 17:57:00,66.6,40.9,23.95,North,5,0.0,0.0,39,0.00,,---,0.00,VWS V14.01,2013-06-18 00:57:00,
2013-06-17 18:02:00,66.4,40.7,23.95,NNW,343,0.0,0.0,39,0.00,,---,0.00,VWS V14.01,2013-06-18 01:02:00,
2013-06-17 18:07:00,66.4,41.4,23.95,North,5,0.0,0.0,40,0.00,,---,0.00,VWS V14.01,2013-06-18 01:07:00,
2013-06-17 18:12:00,66.6,42.2,23.95,North,5,0.0,0.0,41,0.00,,---,0.00,VWS V14.01,2013-06-18 01:12:00,
2013-06-17 18:18:00,67.3,42.8,23.95,NNE,17,0.0,0.0,41,0.00,,---,0.00,VWS V14.01,2013-06-18 01:18:00,
2013-06-17 18:23:00,67.6,41.1,23.66,North,360,0.0,0.0,38,0.00,,---,0.00,VWS V14.01,2013-06-18 01:23:00,
2013-06-17 18:28:00,67.4,40.9,23.66,North,5,0.0,0.0,38,0.00,,---,0.00,VWS V14.01,2013-06-18 01:28:00,
2013-06-17 18:33:00,67.6,41.1,23.66,SE,138,0.0,0.0,38,0.00,,---,0.00,VWS V14.01,2013-06-18 01:33:00,
2013-06-17 18:38:00,68.3,39.6,23.66,NNE,12,0.0,0.0,35,0.00,,---,0.00,VWS V14.01,2013-06-18 01:38:00,
2013-06-17 18:43:00,68.8,37.8,23.66,South,180,0.0,0.0,32,0.00,,---,0.00,VWS V14.01,2013-06-18 01:43:00,
2013-06-17 18:48:00,69.1,39.6,23.66,West,263,0.0,0.0,34,0.00,,---,0.00,VWS V14.01,2013-06-18 01:48:00,
2013-06-17 18:53:00,69.3,37.4,23.66,SSW,208,0.0,0.0,31,0.00,,---,0.00,VWS V14.01,2013-06-18 01:53:00,
2013-06-17 18:58:00,68.9,37.8,23.66,South,181,0.0,0.0,32,0.00,,---,0.00,VWS V14.01,2013-06-18 01:58:00,
2013-06-17 19:03:00,68.6,37.6,23.66,SW,225,0.0,0.0,32,0.00,,---,0.00,VWS V14.01,2013-06-18 02:03:00,
2013-06-17 19:08:00,68.4,38.2,23.66,West,272,0.0,0.0,33,0.00,,---,0.00,VWS V14.01,2013-06-18 02:08:00,
2013-06-17 19:13:00,68.1,38.7,23.66,South,169,0.0,0.0,34,0.00,,---,0.00,VWS V14.01,2013-06-18 02:13:00,
2013-06-17 19:18:00,67.9,39.3,23.66,West,262,0.0,0.0,35,0.00,,---,0.00,VWS V14.01,2013-06-18 02:18:00,
2013-06-17 19:23:00,67.8,39.9,23.66,NW,311,0.0,0.0,36,0.00,,---,0.00,VWS V14.01,2013-06-18 02:23:00,
2013-06-17 19:28:00,67.3,40.2,23.66,SW,234,0.0,0.0,37,0.00,,---,0.00,VWS V14.01,2013-06-18 02:28:00,
2013-06-17 19:33:00,66.9,40.5,23.66,WNW,286,0.0,0.0,38,0.00,,---,0.00,VWS V14.01,2013-06-18 02:33:00,
2013-06-17 19:38:00,66.8,40.4,23.66,WSW,244,0.0,0.0,38,0.00,,---,0.00,VWS V14.01,2013-06-18 02:38:00,
2013-06-17 19:44:00,66.8,41.1,23.66,SW,221,0.0,0.0,39,0.00,,---,0.00,VWS V14.01,2013-06-18 02:44:00,
2013-06-17 19:49:00,66.8,40.4,23.66,West,262,0.0,0.0,38,0.00,,---,0.00,VWS V14.01,2013-06-18 02:49:00,
2013-06-17 19:54:00,66.6,40.2,23.66,WSW,257,0.0,0.0,38,0.00,,---,0.00,VWS V14.01,2013-06-18 02:54:00,
2013-06-17 19:59:00,66.1,39.8,23.66,West,280,0.0,0.0,38,0.00,,---,0.00,VWS V14.01,2013-06-18 02:59:00,
2013-06-17 20:04:00,65.6,40.0,23.66,WNW,295,0.0,0.0,39,0.00,,---,0.00,VWS V14.01,2013-06-18 03:04:00,
2013-06-17 20:09:00,64.8,40.6,23.66,NW,311,0.0,0.0,41,0.00,,---,0.00,VWS V14.01,2013-06-18 03:09:00,
2013-06-17 20:14:00,64.3,40.7,23.66,NW,312,0.0,0.0,42,0.00,,---,0.00,VWS V14.01,2013-06-18 03:14:00,
2013-06-17 20:19:00,64.0,40.5,23.66,NW,310,0.0,0.0,42,0.00,,---,0.00,VWS V14.01,2013-06-18 03:19:00,
2013-06-17 20:24:00,63.5,40.0,23.66,NW,322,0.0,0.0,42,0.00,,---,0.00,VWS V14.01,2013-06-18 03:24:00,
2013-06-17 20:29:00,63.1,40.9,23.66,NW,318,0.0,0.0,44,0.00,,---,0.00,VWS V14.01,2013-06-18 03:29:00,
2013-06-17 20:34:00,62.4,40.2,28.38,NNW,347,0.0,0.0,44,0.00,,---,0.00,VWS V14.01,2013-06-18 03:34:00,
2013-06-17 20:39:00,62.0,41.0,28.38,NNW,340,0.0,0.0,46,0.00,,---,0.00,VWS V14.01,2013-06-18 03:39:00,
2013-06-17 20:44:00,61.0,40.7,28.38,North,355,0.0,0.0,47,0.00,,---,0.00,VWS V14.01,2013-06-18 03:44:00,
2013-06-17 20:49:00,59.8,41.1,29.05,NNW,341,0.0,0.0,50,0.00,,---,0.00,VWS V14.01,2013-06-18 03:49:00,
2013-06-17 20:54:00,59.0,41.4,31.07,NNW,348,0.0,0.0,52,0.00,,---,0.00,VWS V14.01,2013-06-18 03:54:00,
2013-06-17 20:59:00,58.4,41.3,30.73,North,5,0.0,0.0,53,0.00,,---,0.00,VWS V14.01,2013-06-18 03:59:00,
2013-06-17 21:01:00,58.3,41.8,31.41,North,360,0.0,0.0,54,0.00,,---,0.00,VWS V14.01,2013-06-18 04:01:00,
2013-06-17 21:07:00,57.0,41.9,31.41,NNE,17,0.0,0.0,57,0.00,,---,0.00,VWS V14.01,2013-06-18 04:07:00,
2013-06-17 21:12:00,56.5,41.9,28.38,NNW,336,0.0,0.0,58,0.00,,---,0.00,VWS V14.01,2013-06-18 04:12:00,
2013-06-17 21:17:00,56.0,41.9,30.06,North,355,0.0,0.0,59,0.00,,---,0.00,VWS V14.01,2013-06-18 04:17:00,
2013-06-17 21:22:00,55.7,41.6,30.06,NNW,346,0.0,0.0,59,0.00,,---,0.00,VWS V14.01,2013-06-18 04:22:00,
2013-06-17 21:27:00,55.6,42.0,30.05,NNW,341,0.0,0.0,60,0.00,,---,0.00,VWS V14.01,2013-06-18 04:27:00,
2013-06-17 21:32:00,55.3,42.1,31.39,NNW,346,0.0,0.0,61,0.00,,---,0.00,VWS V14.01,2013-06-18 04:32:00,
2013-06-17 21:37:00,55.1,41.9,31.39,NNW,333,0.0,0.0,61,0.00,,---,0.00,VWS V14.01,2013-06-18 04:37:00,
2013-06-17 21:42:00,54.8,42.0,28.39,NNW,331,0.0,0.0,62,0.00,,---,0.00,VWS V14.01,2013-06-18 04:42:00,
2013-06-17 21:47:00,54.7,42.0,30.06,North,360,0.0,0.0,62,0.00,,---,0.00,VWS V14.01,2013-06-18 04:47:00,
2013-06-17 21:52:00,54.5,41.8,30.06,NNE,23,0.0,0.0,62,0.00,,---,0.00,VWS V14.01,2013-06-18 04:52:00,
2013-06-17 21:57:00,54.4,42.1,30.06,North,350,0.0,0.0,63,0.00,,---,0.00,VWS V14.01,2013-06-18 04:57:00,
2013-06-17 22:02:00,54.2,41.9,29.70,NNW,336,0.0,0.0,63,0.00,,---,0.00,VWS V14.01,2013-06-18 05:02:00,
2013-06-17 22:07:00,54.1,42.2,31.40,North,350,0.0,0.0,64,0.00,,---,0.00,VWS V14.01,2013-06-18 05:07:00,
2013-06-17 22:13:00,53.9,42.0,31.40,North,355,0.0,0.0,64,0.00,,---,0.00,VWS V14.01,2013-06-18 05:13:00,
2013-06-17 22:18:00,53.9,42.0,31.40,NNW,332,0.0,0.0,64,0.00,,---,0.00,VWS V14.01,2013-06-18 05:18:00,
2013-06-17 22:23:00,53.8,42.3,31.40,NW,326,0.0,0.0,65,0.00,,---,0.00,VWS V14.01,2013-06-18 05:23:00,
2013-06-17 22:28:00,53.8,42.3,31.40,NNW,327,0.0,0.0,65,0.00,,---,0.00,VWS V14.01,2013-06-18 05:28:00,
2013-06-17 22:33:00,53.6,42.1,31.40,NW,311,0.0,0.0,65,0.00,,---,0.00,VWS V14.01,2013-06-18 05:33:00,
2013-06-17 22:38:00,53.6,42.1,31.40,NW,317,0.0,0.0,65,0.00,,---,0.00,VWS V14.01,2013-06-18 05:38:00,
2013-06-17 22:43:00,53.5,42.4,31.40,WNW,296,0.0,0.0,66,0.00,,---,0.00,VWS V14.01,2013-06-18 05:43:00,
2013-06-17 22:48:00,53.3,42.2,31.39,NW,307,0.0,0.0,66,0.00,,---,0.00,VWS V14.01,2013-06-18 05:48:00,
2013-06-17 22:53:00,53.3,42.6,31.39,NW,319,0.0,0.0,67,0.00,,---,0.00,VWS V14.01,2013-06-18 05:53:00,
2013-06-17 22:58:00,53.1,42.5,31.39,NNW,342,0.0,0.0,67,0.00,,---,0.00,VWS V14.01,2013-06-18 05:58:00,
2013-06-17 23:03:00,52.8,42.5,31.39,NNW,336,0.0,0.0,68,0.00,,---,0.00,VWS V14.01,2013-06-18 06:03:00,
2013-06-17 23:08:00,52.6,42.3,31.40,NW,313,0.0,0.0,68,0.00,,---,0.00,VWS V14.01,2013-06-18 06:08:00,
2013-06-17 23:14:00,52.5,42.6,31.40,NNW,333,0.0,0.0,69,0.00,,---,0.00,VWS V14.01,2013-06-18 06:14:00,
2013-06-17 23:19:00,52.2,42.3,31.40,NNW,342,0.0,0.0,69,0.00,,---,0.00,VWS V14.01,2013-06-18 06:19:00,
2013-06-17 23:24:00,52.0,42.5,31.40,NNW,338,0.0,0.0,70,0.00,,---,0.00,VWS V14.01,2013-06-18 06:24:00,
2013-06-17 23:29:00,51.7,42.6,31.40,NNW,333,0.0,0.0,71,0.00,,---,0.00,VWS V14.01,2013-06-18 06:29:00,
2013-06-17 23:34:00,51.4,42.7,31.40,NNW,342,0.0,0.0,72,0.00,,---,0.00,VWS V14.01,2013-06-18 06:34:00,
2013-06-17 23:39:00,51.3,42.6,31.39,NNW,346,0.0,0.0,72,0.00,,---,0.00,VWS V14.01,2013-06-18 06:39:00,
2013-06-17 23:44:00,51.0,42.7,31.39,NNW,346,0.0,0.0,73,0.00,,---,0.00,VWS V14.01,2013-06-18 06:44:00,
2013-06-17 23:49:00,50.8,42.5,31.39,NNW,346,0.0,0.0,73,0.00,,---,0.00,VWS V14.01,2013-06-18 06:49:00,
2013-06-17 23:54:00,50.8,42.8,31.39,NW,323,0.0,0.0,74,0.00,,---,0.00,VWS V14.01,2013-06-18 06:54:00,
2013-06-17 23:59:00,50.8,42.8,31.39,NW,322,0.0,0.0,74,0.00,,---,0.00,VWS V14.01,2013-06-18 06:59:00,